Time;durP1;ratioP1;P1;durP2;ratioP2;P2;SDS_P1;SDS_P2;PMS_P1;PMS_P2;Temp;Humidity;BMP_temperature;BMP_pressure;BME280_temperature;BME280_humidity;BME280_pressure;Samples;Min_cycle;Max_cycle;Signal;HPM_P1;HPM_P2
2021/01/03 00:01:39;;;;;;;;;;;1.90;99.90;;;;;;5054938;28;19919;-70
2021/01/03 00:04:05;;;;;;;;;;;1.90;99.90;;;;;;5057670;28;20590;-70
2021/01/03 00:06:30;;;;;;;;;;;1.90;99.90;;;;;;5068191;28;19912;-71
2021/01/03 00:08:56;;;;;;;;;;;1.90;99.90;;;;;;5072215;28;19912;-71
2021/01/03 00:11:21;;;;;;;;;;;1.90;99.90;;;;;;5060456;28;19952;-70
2021/01/03 00:13:47;;;;;;;;;;;1.90;99.90;;;;;;5064225;28;19967;-71
2021/01/03 00:16:12;;;;;;;;;;;1.90;99.90;;;;;;5049699;28;20290;-71
2021/01/03 00:18:38;;;;;;;;;;;1.90;99.90;;;;;;5067045;28;20345;-70
2021/01/03 00:21:03;;;;;;;;;;;1.90;99.90;;;;;;5055159;28;19913;-72
2021/01/03 00:23:29;;;;;;;;;;;1.90;99.90;;;;;;5055591;28;20372;-71
2021/01/03 00:25:54;;;;;;;;;;;1.90;99.90;;;;;;5059315;28;20410;-70
2021/01/03 00:28:20;;;;;;;;;;;1.90;99.90;;;;;;5068081;28;19916;-70
2021/01/03 00:30:45;;;;;;;;;;;1.90;99.90;;;;;;5052394;28;19928;-71
2021/01/03 00:33:11;;;;;;;;;;;2.00;99.90;;;;;;5058608;28;19925;-72
2021/01/03 00:35:36;;;;;;;;;;;2.00;99.90;;;;;;5055950;28;19925;-71
2021/01/03 00:38:04;;;;;;;;;;;1.90;99.90;;;;;;5052234;28;20380;-72
2021/01/03 00:40:30;;;;;;;;;;;1.90;99.90;;;;;;5068175;28;19913;-70
2021/01/03 00:42:56;;;;;;;;;;;1.90;99.90;;;;;;5052517;28;20019;-70
2021/01/03 00:45:21;;;;;;;;;;;1.90;99.90;;;;;;5058034;28;19928;-72
2021/01/03 00:47:47;;;;;;;;;;;1.90;99.90;;;;;;5056671;28;19913;-72
2021/01/03 00:50:13;;;;;;;;;;;1.90;99.90;;;;;;5059888;28;20460;-72
2021/01/03 00:52:38;;;;;;;;;;;1.90;99.90;;;;;;5049693;28;19917;-72
2021/01/03 00:55:06;;;;;;;;;;;1.90;99.90;;;;;;5067688;28;19923;-72
2021/01/03 00:57:32;;;;;;;;;;;1.90;99.90;;;;;;5052322;28;20413;-72
2021/01/03 00:59:57;;;;;;;;;;;1.90;99.90;;;;;;5057232;28;19924;-72
2021/01/03 01:02:23;;;;;;;;;;;1.90;99.90;;;;;;5068380;28;19913;-72
2021/01/03 01:04:48;;;;;;;;;;;1.90;99.90;;;;;;5058710;28;19959;-69
2021/01/03 01:07:14;;;;;;;;;;;2.00;99.90;;;;;;5050570;28;20015;-70
2021/01/03 01:09:39;;;;;;;;;;;2.00;99.90;;;;;;5061796;28;19920;-70
2021/01/03 01:12:05;;;;;;;;;;;1.90;99.90;;;;;;5059806;28;19975;-69
2021/01/03 01:14:31;;;;;;;;;;;2.00;99.90;;;;;;5059143;28;20300;-68
2021/01/03 01:16:56;;;;;;;;;;;2.00;99.90;;;;;;5048111;28;19923;-69
2021/01/03 01:19:22;;;;;;;;;;;2.00;99.90;;;;;;5060097;28;19920;-70
2021/01/03 01:21:47;;;;;;;;;;;2.00;99.90;;;;;;5064793;28;19916;-72
2021/01/03 01:24:13;;;;;;;;;;;2.00;99.90;;;;;;5065331;28;19917;-71
2021/01/03 01:26:38;;;;;;;;;;;2.00;99.90;;;;;;5051238;28;19982;-72
2021/01/03 01:29:04;;;;;;;;;;;2.00;99.90;;;;;;5058062;28;19943;-72
2021/01/03 01:31:29;;;;;;;;;;;2.00;99.90;;;;;;5078337;22;19920;-69
2021/01/03 01:33:55;;;;;;;;;;;1.90;99.90;;;;;;5068068;28;19923;-68
2021/01/03 01:36:20;;;;;;;;;;;1.90;99.90;;;;;;5066347;28;19916;-68
2021/01/03 01:38:46;;;;;;;;;;;1.90;99.90;;;;;;5060299;28;20000;-69
2021/01/03 01:41:11;;;;;;;;;;;1.80;99.90;;;;;;5062152;28;19920;-70
2021/01/03 01:43:37;;;;;;;;;;;1.80;99.90;;;;;;5066344;28;19986;-69
2021/01/03 01:46:04;;;;;;;;;;;1.80;99.90;;;;;;5063831;28;19992;-69
2021/01/03 01:48:29;;;;;;;;;;;1.80;99.90;;;;;;5058156;28;19985;-69
2021/01/03 01:50:59;;;;;;;;;;;1.80;99.90;;;;;;5063802;28;19916;-69
2021/01/03 01:53:30;;;;;;;;;;;1.80;99.90;;;;;;5059236;28;19932;-69
2021/01/03 01:56:17;;;;;;;;;;;1.80;99.90;;;;;;5058152;28;20689;-68
2021/01/03 01:58:48;;;;;;;;;;;1.90;99.90;;;;;;5056869;28;19920;-69
2021/01/03 02:01:16;;;;;;;;;;;1.90;99.90;;;;;;5054213;28;19923;-69
2021/01/03 02:03:46;;;;;;;;;;;1.80;99.90;;;;;;5060160;28;20336;-70
2021/01/03 02:06:17;;;;;;;;;;;1.70;99.90;;;;;;5059013;28;19916;-69
2021/01/03 02:08:43;;;;;;;;;;;1.80;99.90;;;;;;5061354;28;19912;-70
2021/01/03 02:11:11;;;;;;;;;;;1.80;99.90;;;;;;5063580;28;20271;-69
2021/01/03 02:13:42;;;;;;;;;;;1.80;99.90;;;;;;5059279;28;20278;-70
2021/01/03 02:16:14;;;;;;;;;;;1.80;99.90;;;;;;5058232;28;19912;-69
2021/01/03 02:18:40;;;;;;;;;;;1.90;99.90;;;;;;5059879;28;20371;-69
2021/01/03 02:21:24;;;;;;;;;;;1.80;99.90;;;;;;5065840;28;19908;-69
2021/01/03 02:24:09;;;;;;;;;;;1.80;99.90;;;;;;5067210;28;20007;-68
2021/01/03 02:26:36;;;;;;;;;;;1.80;99.90;;;;;;5064893;28;19913;-68
2021/01/03 02:29:03;;;;;;;;;;;1.80;99.90;;;;;;5052648;28;20377;-67
2021/01/03 02:31:31;;;;;;;;;;;1.90;99.90;;;;;;5066112;28;20241;-69
2021/01/03 02:33:57;;;;;;;;;;;1.80;99.90;;;;;;5061801;28;19963;-69
2021/01/03 02:36:31;;;;;;;;;;;1.80;99.90;;;;;;5054186;28;19991;-68
2021/01/03 02:39:00;;;;;;;;;;;1.80;99.90;;;;;;5060958;28;19921;-69
2021/01/03 02:41:25;;;;;;;;;;;1.80;99.90;;;;;;5053477;28;19912;-69
2021/01/03 02:43:51;;;;;;;;;;;1.80;99.90;;;;;;5060156;28;19967;-68
2021/01/03 02:46:16;;;;;;;;;;;1.80;99.90;;;;;;5061758;28;19924;-68
2021/01/03 02:48:42;;;;;;;;;;;1.80;99.90;;;;;;5062088;28;20142;-67
2021/01/03 02:51:07;;;;;;;;;;;1.90;99.90;;;;;;5057303;28;19966;-68
2021/01/03 02:53:33;;;;;;;;;;;1.80;99.90;;;;;;5060359;28;20413;-68
2021/01/03 02:55:58;;;;;;;;;;;1.80;99.90;;;;;;5065145;28;19950;-68
2021/01/03 02:58:24;;;;;;;;;;;1.80;99.90;;;;;;5061718;28;19936;-69
2021/01/03 03:00:49;;;;;;;;;;;1.70;99.90;;;;;;5060147;28;19954;-68
2021/01/03 03:03:15;;;;;;;;;;;1.70;99.90;;;;;;5068216;28;20287;-69
2021/01/03 03:05:40;;;;;;;;;;;1.70;99.90;;;;;;5065302;28;19916;-69
2021/01/03 03:08:06;;;;;;;;;;;1.70;99.90;;;;;;5057368;28;19921;-70
2021/01/03 03:10:32;;;;;;;;;;;1.70;99.90;;;;;;5064991;28;19916;-68
2021/01/03 03:12:58;;;;;;;;;;;1.80;99.90;;;;;;5062666;28;19923;-69
2021/01/03 03:15:25;;;;;;;;;;;1.80;99.90;;;;;;5063328;28;19917;-69
2021/01/03 03:17:51;;;;;;;;;;;1.80;99.90;;;;;;5063202;28;19928;-68
2021/01/03 03:20:18;;;;;;;;;;;1.70;99.90;;;;;;5067773;28;19924;-67
2021/01/03 03:22:44;;;;;;;;;;;1.70;99.90;;;;;;5057938;28;19924;-70
2021/01/03 03:25:10;;;;;;;;;;;1.70;99.90;;;;;;5063013;28;19924;-69
2021/01/03 03:27:36;;;;;;;;;;;1.70;99.90;;;;;;5063718;28;19920;-68
2021/01/03 03:30:03;;;;;;;;;;;1.70;99.90;;;;;;5062036;28;19932;-68
2021/01/03 03:32:28;;;;;;;;;;;1.70;99.90;;;;;;5064972;28;19959;-70
2021/01/03 03:34:54;;;;;;;;;;;1.70;99.90;;;;;;5067134;28;19955;-69
2021/01/03 03:37:19;;;;;;;;;;;1.70;99.90;;;;;;5056135;28;19917;-69
2021/01/03 03:39:45;;;;;;;;;;;1.60;99.90;;;;;;5064465;28;19920;-68
2021/01/03 03:42:10;;;;;;;;;;;1.70;99.90;;;;;;5055905;28;19973;-69
2021/01/03 03:44:36;;;;;;;;;;;1.60;99.90;;;;;;5053780;28;19959;-68
2021/01/03 03:47:03;;;;;;;;;;;1.70;99.90;;;;;;5055519;28;19970;-67
2021/01/03 03:49:29;;;;;;;;;;;1.70;99.90;;;;;;5066219;28;20003;-68
2021/01/03 03:51:55;;;;;;;;;;;1.70;99.90;;;;;;5068124;28;20008;-70
2021/01/03 03:54:21;;;;;;;;;;;1.70;99.90;;;;;;5061842;28;20358;-69
2021/01/03 03:56:53;;;;;;;;;;;1.70;99.90;;;;;;5064100;28;20358;-69
2021/01/03 03:59:19;;;;;;;;;;;1.70;99.90;;;;;;5056918;28;19913;-69
2021/01/03 04:01:44;;;;;;;;;;;1.70;99.90;;;;;;5064223;28;19922;-68
2021/01/03 04:04:10;;;;;;;;;;;1.70;99.90;;;;;;5066113;28;20312;-69
2021/01/03 04:06:36;;;;;;;;;;;1.50;99.90;;;;;;5060051;28;19916;-68
2021/01/03 04:09:02;;;;;;;;;;;1.50;99.90;;;;;;5058840;28;20039;-68
2021/01/03 04:11:28;;;;;;;;;;;1.50;99.90;;;;;;5061573;28;19912;-69
2021/01/03 04:13:53;;;;;;;;;;;1.40;99.90;;;;;;5061226;28;20003;-68
2021/01/03 04:16:19;;;;;;;;;;;1.40;99.90;;;;;;5063606;28;19912;-69
2021/01/03 04:18:44;;;;;;;;;;;1.40;99.90;;;;;;5059283;28;19982;-69
2021/01/03 04:21:11;;;;;;;;;;;1.50;99.90;;;;;;5062496;28;19948;-68
2021/01/03 04:23:36;;;;;;;;;;;1.50;99.90;;;;;;5060644;28;19925;-69
2021/01/03 04:26:02;;;;;;;;;;;1.60;99.90;;;;;;5057584;28;19916;-68
2021/01/03 04:28:27;;;;;;;;;;;1.50;99.90;;;;;;5058111;28;19978;-68
2021/01/03 04:30:53;;;;;;;;;;;1.60;99.90;;;;;;5060916;28;20297;-70
2021/01/03 04:33:18;;;;;;;;;;;1.60;99.90;;;;;;5060246;28;20331;-67
2021/01/03 04:35:44;;;;;;;;;;;1.60;99.90;;;;;;5054297;28;19927;-69
2021/01/03 04:38:09;;;;;;;;;;;1.60;99.90;;;;;;5062111;28;19912;-67
2021/01/03 04:40:35;;;;;;;;;;;1.40;99.90;;;;;;5056683;28;20589;-67
2021/01/03 04:43:01;;;;;;;;;;;1.40;99.90;;;;;;5053523;28;19962;-69
2021/01/03 04:45:30;;;;;;;;;;;1.30;99.90;;;;;;5051530;28;19917;-69
2021/01/03 04:48:01;;;;;;;;;;;1.30;99.90;;;;;;5063670;28;19916;-69
2021/01/03 04:50:40;;;;;;;;;;;1.30;99.90;;;;;;5059456;28;19927;-68
2021/01/03 04:53:21;;;;;;;;;;;1.30;99.90;;;;;;5049297;28;19917;-68
2021/01/03 04:56:06;;;;;;;;;;;1.30;99.90;;;;;;5055454;28;19919;-67
2021/01/03 04:59:11;;;;;;;;;;;1.30;99.90;;;;;;5061151;28;19917;-69
2021/01/03 05:01:52;;;;;;;;;;;1.30;99.90;;;;;;5041430;28;19978;-68
2021/01/03 05:04:36;;;;;;;;;;;1.30;99.90;;;;;;5047925;28;19932;-68
2021/01/03 05:07:05;;;;;;;;;;;1.40;99.90;;;;;;5046686;28;20687;-67
2021/01/03 05:09:30;;;;;;;;;;;1.40;99.90;;;;;;5053565;28;19920;-66
2021/01/03 05:12:04;;;;;;;;;;;1.40;99.90;;;;;;5045921;28;20830;-68
2021/01/03 05:14:50;;;;;;;;;;;1.40;99.90;;;;;;5055774;28;19982;-67
2021/01/03 05:17:15;;;;;;;;;;;1.40;99.90;;;;;;5037486;28;19912;-67
2021/01/03 05:19:41;;;;;;;;;;;1.40;99.90;;;;;;5057655;28;20738;-70
2021/01/03 05:22:06;;;;;;;;;;;1.50;99.90;;;;;;5049364;28;19924;-68
2021/01/03 05:24:41;;;;;;;;;;;1.50;99.90;;;;;;5051135;28;20015;-69
2021/01/03 05:27:19;;;;;;;;;;;1.50;99.90;;;;;;5050144;28;19975;-68
2021/01/03 05:29:45;;;;;;;;;;;1.50;99.90;;;;;;5047703;28;20029;-67
2021/01/03 05:32:13;;;;;;;;;;;1.50;99.90;;;;;;5057216;28;19917;-68
2021/01/03 05:34:38;;;;;;;;;;;1.50;99.90;;;;;;5055765;28;19913;-68
2021/01/03 05:37:06;;;;;;;;;;;1.50;99.90;;;;;;5057894;28;19909;-67
2021/01/03 05:39:33;;;;;;;;;;;1.50;99.90;;;;;;5058830;28;20014;-67
2021/01/03 05:42:01;;;;;;;;;;;1.50;99.90;;;;;;5059953;28;19935;-67
2021/01/03 05:44:29;;;;;;;;;;;1.50;99.90;;;;;;5061298;28;19926;-69
2021/01/03 05:47:20;;;;;;;;;;;1.60;99.90;;;;;;5058235;28;20337;-68
2021/01/03 05:49:48;;;;;;;;;;;1.60;99.90;;;;;;5058696;28;20324;-67
2021/01/03 05:52:19;;;;;;;;;;;1.60;99.90;;;;;;5058986;28;19915;-67
2021/01/03 05:54:45;;;;;;;;;;;1.60;99.90;;;;;;5053421;28;19956;-67
2021/01/03 05:57:17;;;;;;;;;;;1.60;99.90;;;;;;5060527;28;20002;-65
2021/01/03 05:59:43;;;;;;;;;;;1.50;99.90;;;;;;5055495;28;20309;-67
2021/01/03 06:02:10;;;;;;;;;;;1.50;99.90;;;;;;5058190;28;19913;-66
2021/01/03 06:04:36;;;;;;;;;;;1.60;99.90;;;;;;5057029;28;19920;-67
2021/01/03 06:07:06;;;;;;;;;;;1.40;99.90;;;;;;5061672;28;20613;-66
2021/01/03 06:09:33;;;;;;;;;;;1.40;99.90;;;;;;5062857;28;19931;-67
2021/01/03 06:11:58;;;;;;;;;;;1.40;99.90;;;;;;5056328;28;19929;-67
2021/01/03 06:14:25;;;;;;;;;;;1.40;99.90;;;;;;5056685;28;19942;-68
2021/01/03 06:16:50;;;;;;;;;;;1.50;99.90;;;;;;5048385;28;19916;-68
2021/01/03 06:19:16;;;;;;;;;;;1.40;99.90;;;;;;5060390;28;19924;-69
2021/01/03 06:21:42;;;;;;;;;;;1.40;99.90;;;;;;5055168;28;19917;-68
2021/01/03 06:24:07;;;;;;;;;;;1.50;99.90;;;;;;5056093;28;20300;-69
2021/01/03 06:26:35;;;;;;;;;;;1.50;99.90;;;;;;5058782;28;19978;-67
2021/01/03 06:29:04;;;;;;;;;;;1.50;99.90;;;;;;5051609;28;19908;-67
2021/01/03 06:31:42;;;;;;;;;;;1.60;99.90;;;;;;5054083;28;19958;-68
2021/01/03 06:34:26;;;;;;;;;;;1.60;99.90;;;;;;5058181;28;19931;-68
2021/01/03 06:37:06;;;;;;;;;;;1.60;99.90;;;;;;5047464;28;19989;-68
2021/01/03 06:39:35;;;;;;;;;;;1.60;99.90;;;;;;5052345;28;19950;-67
2021/01/03 06:42:04;;;;;;;;;;;1.60;99.90;;;;;;5056316;28;19933;-66
2021/01/03 06:44:45;;;;;;;;;;;1.60;99.90;;;;;;5057239;28;19920;-67
2021/01/03 06:47:10;;;;;;;;;;;1.50;99.90;;;;;;5059701;28;19921;-68
2021/01/03 06:50:02;;;;;;;;;;;1.40;99.90;;;;;;5055760;28;19999;-66
2021/01/03 06:52:27;;;;;;;;;;;1.30;99.90;;;;;;5049968;28;20447;-68
2021/01/03 06:55:06;;;;;;;;;;;1.40;99.90;;;;;;5059195;28;19913;-68
2021/01/03 06:57:37;;;;;;;;;;;1.30;99.90;;;;;;5046265;28;19917;-66
2021/01/03 07:00:08;;;;;;;;;;;1.40;99.90;;;;;;5054836;28;19916;-68
2021/01/03 07:02:34;;;;;;;;;;;1.50;99.90;;;;;;5046913;28;19931;-67
2021/01/03 07:05:07;;;;;;;;;;;1.50;99.90;;;;;;5061882;28;19974;-67
2021/01/03 07:07:34;;;;;;;;;;;1.50;99.90;;;;;;5061648;28;19916;-68
2021/01/03 07:10:08;;;;;;;;;;;1.50;99.90;;;;;;5054986;28;20073;-67
2021/01/03 07:12:44;;;;;;;;;;;1.50;99.90;;;;;;5055818;28;20395;-68
2021/01/03 07:15:12;;;;;;;;;;;1.50;99.90;;;;;;5056408;28;19924;-71
2021/01/03 07:18:08;;;;;;;;;;;1.50;99.90;;;;;;5050667;28;19917;-68
2021/01/03 07:20:50;;;;;;;;;;;1.40;99.90;;;;;;5049560;28;19996;-69
2021/01/03 07:23:31;;;;;;;;;;;1.40;99.90;;;;;;5062364;28;19920;-68
2021/01/03 07:26:14;;;;;;;;;;;1.50;99.90;;;;;;5052882;28;19921;-69
2021/01/03 07:28:45;;;;;;;;;;;1.40;99.90;;;;;;5057146;28;19917;-67
2021/01/03 07:31:11;;;;;;;;;;;1.40;99.90;;;;;;5061533;28;20026;-67
2021/01/03 07:33:45;;;;;;;;;;;1.60;99.90;;;;;;5078816;22;20011;-71
2021/01/03 07:36:19;;;;;;;;;;;1.70;99.90;;;;;;5068871;28;20253;-70
2021/01/03 07:39:03;;;;;;;;;;;1.70;99.90;;;;;;5073565;28;19923;-70
2021/01/03 07:41:29;;;;;;;;;;;1.60;99.90;;;;;;5057903;28;19917;-70
2021/01/03 07:43:57;;;;;;;;;;;1.60;99.90;;;;;;5073814;28;19950;-70
2021/01/03 07:46:39;;;;;;;;;;;1.50;99.90;;;;;;5070121;28;20427;-72
2021/01/03 07:49:23;;;;;;;;;;;1.50;99.90;;;;;;5072388;28;19918;-69
2021/01/03 07:51:48;;;;;;;;;;;1.40;99.90;;;;;;5071115;28;19999;-71
2021/01/03 07:54:14;;;;;;;;;;;1.50;99.90;;;;;;5078323;28;20003;-70
2021/01/03 07:56:39;;;;;;;;;;;1.50;99.90;;;;;;5073512;28;19934;-70
2021/01/03 07:59:05;;;;;;;;;;;1.50;99.90;;;;;;5079748;28;19923;-72
2021/01/03 08:01:37;;;;;;;;;;;1.50;99.90;;;;;;5071724;28;19912;-70
2021/01/03 08:04:33;;;;;;;;;;;1.50;99.90;;;;;;5072204;28;19932;-70
2021/01/03 08:07:12;;;;;;;;;;;1.30;99.90;;;;;;5065498;28;19916;-71
2021/01/03 08:09:38;;;;;;;;;;;1.30;99.90;;;;;;5071874;28;20534;-69
2021/01/03 08:12:04;;;;;;;;;;;1.40;99.90;;;;;;5078093;28;19919;-70
2021/01/03 08:14:32;;;;;;;;;;;1.40;99.90;;;;;;5070745;28;20508;-70
2021/01/03 08:16:59;;;;;;;;;;;1.50;99.90;;;;;;5076065;28;20024;-71
2021/01/03 08:19:24;;;;;;;;;;;1.60;99.90;;;;;;5074855;28;19920;-71
2021/01/03 08:21:58;;;;;;;;;;;1.70;99.90;;;;;;5080921;28;19912;-70
2021/01/03 08:24:24;;;;;;;;;;;1.80;99.90;;;;;;5071015;28;20288;-72
2021/01/03 08:26:51;;;;;;;;;;;1.90;99.90;;;;;;5078704;28;19916;-71
2021/01/03 08:29:29;;;;;;;;;;;2.00;99.90;;;;;;5072033;28;19943;-71
2021/01/03 08:31:55;;;;;;;;;;;2.10;99.90;;;;;;5070348;28;19912;-72
2021/01/03 08:34:31;;;;;;;;;;;2.20;99.90;;;;;;5061030;28;19924;-71
2021/01/03 08:36:57;;;;;;;;;;;2.20;99.90;;;;;;5070913;28;19913;-71
2021/01/03 08:39:24;;;;;;;;;;;2.30;99.90;;;;;;5077751;28;19996;-71
2021/01/03 08:41:59;;;;;;;;;;;2.40;99.90;;;;;;5073820;28;20446;-71
2021/01/03 08:44:26;;;;;;;;;;;2.50;99.90;;;;;;5072014;28;20297;-71
2021/01/03 08:47:11;;;;;;;;;;;2.50;99.90;;;;;;5075633;28;19912;-70
2021/01/03 08:49:37;;;;;;;;;;;2.40;99.90;;;;;;5075296;28;20039;-72
2021/01/03 08:52:04;;;;;;;;;;;2.50;99.90;;;;;;5073906;28;19976;-70
2021/01/03 08:54:29;;;;;;;;;;;2.60;99.90;;;;;;5074594;28;19955;-71
2021/01/03 08:56:55;;;;;;;;;;;2.60;99.90;;;;;;5073618;28;19962;-71
2021/01/03 08:59:20;;;;;;;;;;;2.60;99.90;;;;;;5073292;28;20326;-70
2021/01/03 09:01:46;;;;;;;;;;;2.70;99.90;;;;;;5076981;28;19920;-71
2021/01/03 09:04:13;;;;;;;;;;;2.70;99.90;;;;;;5073805;28;20011;-72
2021/01/03 09:06:39;;;;;;;;;;;2.70;99.90;;;;;;5074195;28;19928;-71
2021/01/03 09:09:24;;;;;;;;;;;2.80;99.90;;;;;;5076665;28;19912;-72
2021/01/03 09:11:55;;;;;;;;;;;2.70;99.90;;;;;;5078527;28;19928;-72
2021/01/03 09:14:33;;;;;;;;;;;2.80;99.90;;;;;;5074622;28;19912;-70
2021/01/03 09:17:14;;;;;;;;;;;2.80;99.90;;;;;;5071845;28;19995;-72
2021/01/03 09:19:40;;;;;;;;;;;2.80;99.90;;;;;;5076980;28;20339;-72
2021/01/03 09:22:05;;;;;;;;;;;2.80;99.90;;;;;;5071072;28;19916;-71
2021/01/03 09:24:32;;;;;;;;;;;2.80;99.90;;;;;;5081804;28;19985;-71
2021/01/03 09:26:59;;;;;;;;;;;2.80;99.90;;;;;;5071207;28;20709;-72
2021/01/03 09:29:30;;;;;;;;;;;2.80;99.90;;;;;;5072707;28;19954;-72
2021/01/03 09:31:56;;;;;;;;;;;2.90;99.90;;;;;;5069453;28;19935;-72
2021/01/03 09:34:27;;;;;;;;;;;2.90;99.90;;;;;;5074981;28;20304;-71
2021/01/03 09:37:12;;;;;;;;;;;2.90;99.90;;;;;;5075698;28;19916;-72
2021/01/03 09:40:00;;;;;;;;;;;2.90;99.90;;;;;;5068695;28;19919;-70
2021/01/03 09:42:37;;;;;;;;;;;3.00;99.90;;;;;;5059917;28;19982;-71
2021/01/03 09:45:08;;;;;;;;;;;3.10;99.90;;;;;;5073115;28;19952;-69
2021/01/03 09:47:52;;;;;;;;;;;3.30;99.90;;;;;;5076397;28;19935;-71
2021/01/03 09:50:22;;;;;;;;;;;3.40;99.90;;;;;;5079881;28;21662;-71
2021/01/03 09:52:51;;;;;;;;;;;3.60;99.90;;;;;;5072145;28;19974;-72
2021/01/03 09:55:20;;;;;;;;;;;3.70;99.90;;;;;;5074486;28;19981;-71
2021/01/03 09:57:57;;;;;;;;;;;3.90;99.90;;;;;;5075941;28;19951;-70
2021/01/03 10:00:22;;;;;;;;;;;4.00;99.90;;;;;;5061170;28;20461;-71
2021/01/03 10:02:48;;;;;;;;;;;4.10;99.90;;;;;;5071676;28;20007;-71
2021/01/03 10:05:25;;;;;;;;;;;4.10;99.90;;;;;;5072234;28;20479;-71
2021/01/03 10:08:04;;;;;;;;;;;4.20;99.90;;;;;;5063823;28;19923;-71
2021/01/03 10:11:02;;;;;;;;;;;4.20;99.90;;;;;;5063958;28;19964;-71
2021/01/03 10:13:28;;;;;;;;;;;4.20;99.90;;;;;;5028819;28;19940;-70
2021/01/03 10:15:54;;;;;;;;;;;4.00;99.90;;;;;;5069380;28;19948;-70
2021/01/03 10:18:37;;;;;;;;;;;3.80;99.90;;;;;;5071330;28;19954;-72
2021/01/03 10:21:22;;;;;;;;;;;3.80;99.90;;;;;;5065113;28;20329;-70
2021/01/03 10:24:06;;;;;;;;;;;3.80;99.90;;;;;;5067126;28;20030;-69
2021/01/03 10:26:33;;;;;;;;;;;3.80;99.90;;;;;;5070134;28;20226;-70
2021/01/03 10:28:59;;;;;;;;;;;3.80;99.90;;;;;;5056954;28;19919;-70
2021/01/03 10:31:26;;;;;;;;;;;3.80;99.90;;;;;;5071582;28;19912;-71
2021/01/03 10:33:52;;;;;;;;;;;3.90;99.90;;;;;;5067641;28;19942;-71
2021/01/03 10:36:19;;;;;;;;;;;3.80;99.90;;;;;;5066512;28;19985;-71
2021/01/03 10:38:45;;;;;;;;;;;3.80;99.90;;;;;;5064855;28;20007;-70
2021/01/03 10:41:10;;;;;;;;;;;3.80;99.90;;;;;;5066835;28;19995;-70
2021/01/03 10:43:36;;;;;;;;;;;3.70;99.90;;;;;;5066154;28;19928;-72
2021/01/03 10:46:01;;;;;;;;;;;3.70;99.90;;;;;;5066228;28;19916;-71
2021/01/03 10:48:27;;;;;;;;;;;3.70;99.90;;;;;;5066373;28;19924;-71
2021/01/03 10:50:52;;;;;;;;;;;3.80;99.90;;;;;;5066649;28;20404;-69
2021/01/03 10:53:18;;;;;;;;;;;3.80;99.90;;;;;;5066126;28;19927;-69
2021/01/03 10:55:43;;;;;;;;;;;3.80;99.90;;;;;;5067339;28;19916;-71
2021/01/03 10:58:09;;;;;;;;;;;3.80;99.90;;;;;;5066249;28;19971;-72
2021/01/03 11:00:34;;;;;;;;;;;3.80;99.90;;;;;;5065209;28;19912;-73
2021/01/03 11:03:00;;;;;;;;;;;3.90;99.90;;;;;;5065175;28;19928;-72
2021/01/03 11:05:25;;;;;;;;;;;4.00;99.90;;;;;;5065239;28;20471;-73
2021/01/03 11:07:51;;;;;;;;;;;4.10;99.90;;;;;;5070785;28;19912;-73
2021/01/03 11:10:16;;;;;;;;;;;4.10;99.90;;;;;;5065741;28;20362;-72
2021/01/03 11:12:51;;;;;;;;;;;4.00;99.90;;;;;;5068478;28;19981;-73
2021/01/03 11:15:16;;;;;;;;;;;3.90;99.90;;;;;;5068741;28;19916;-70
2021/01/03 11:17:42;;;;;;;;;;;3.90;99.90;;;;;;5069963;28;20291;-72
2021/01/03 11:20:08;;;;;;;;;;;3.90;99.90;;;;;;5068904;28;19929;-71
2021/01/03 11:22:33;;;;;;;;;;;3.90;99.90;;;;;;5068317;28;20672;-71
2021/01/03 11:24:59;;;;;;;;;;;3.90;99.90;;;;;;5069422;28;19962;-72
2021/01/03 11:27:24;;;;;;;;;;;3.90;99.90;;;;;;5060219;28;19943;-71
2021/01/03 11:29:50;;;;;;;;;;;3.90;99.90;;;;;;5069110;28;19923;-71
2021/01/03 11:32:17;;;;;;;;;;;3.90;99.90;;;;;;5069323;28;19966;-72
2021/01/03 11:34:43;;;;;;;;;;;3.90;99.90;;;;;;5066920;28;20721;-72
2021/01/03 11:37:11;;;;;;;;;;;3.90;99.90;;;;;;5069363;28;20042;-73
2021/01/03 11:39:37;;;;;;;;;;;3.90;99.90;;;;;;5069017;28;19916;-73
2021/01/03 11:42:08;;;;;;;;;;;4.00;99.90;;;;;;5069328;28;19913;-72
2021/01/03 11:44:34;;;;;;;;;;;3.90;99.90;;;;;;5069400;28;19947;-72
2021/01/03 11:47:04;;;;;;;;;;;3.90;99.90;;;;;;5069493;28;20402;-71
2021/01/03 11:49:32;;;;;;;;;;;4.00;99.90;;;;;;5068132;28;19924;-73
2021/01/03 11:51:59;;;;;;;;;;;4.00;99.90;;;;;;5067998;28;19938;-72
2021/01/03 11:54:25;;;;;;;;;;;4.10;99.90;;;;;;5069808;28;19916;-72
2021/01/03 11:56:53;;;;;;;;;;;4.00;99.90;;;;;;5069817;28;19919;-71
2021/01/03 11:59:18;;;;;;;;;;;4.00;99.90;;;;;;5068334;28;19969;-72
2021/01/03 12:01:43;;;;;;;;;;;4.00;99.90;;;;;;5068710;28;19920;-71
2021/01/03 12:04:09;;;;;;;;;;;4.00;99.90;;;;;;5067793;28;20439;-71
2021/01/03 12:06:34;;;;;;;;;;;3.80;99.90;;;;;;5067836;28;19955;-71
2021/01/03 12:09:00;;;;;;;;;;;3.90;99.90;;;;;;5068900;28;19957;-73
2021/01/03 12:11:25;;;;;;;;;;;3.90;99.90;;;;;;5069530;28;20308;-71
2021/01/03 12:13:52;;;;;;;;;;;3.80;99.90;;;;;;5067901;28;19912;-73
2021/01/03 12:16:21;;;;;;;;;;;3.80;99.90;;;;;;5066803;28;20353;-72
2021/01/03 12:18:47;;;;;;;;;;;3.90;99.90;;;;;;5068389;28;19912;-72
2021/01/03 12:21:19;;;;;;;;;;;3.90;99.90;;;;;;5067902;28;19931;-72
2021/01/03 12:23:44;;;;;;;;;;;4.10;99.90;;;;;;5067548;28;19951;-71
2021/01/03 12:26:10;;;;;;;;;;;4.20;99.90;;;;;;5068839;28;20304;-72
2021/01/03 12:28:35;;;;;;;;;;;4.40;99.90;;;;;;5067683;28;19919;-72
2021/01/03 12:31:01;;;;;;;;;;;4.50;99.90;;;;;;5067752;28;19942;-71
2021/01/03 12:33:26;;;;;;;;;;;4.60;99.90;;;;;;5065983;28;20250;-72
2021/01/03 12:35:52;;;;;;;;;;;4.50;99.90;;;;;;5066859;28;19913;-72
2021/01/03 12:38:17;;;;;;;;;;;4.40;99.90;;;;;;5068561;28;19931;-72
2021/01/03 12:40:44;;;;;;;;;;;4.30;99.90;;;;;;5066576;28;19940;-72
2021/01/03 12:43:09;;;;;;;;;;;4.30;99.90;;;;;;5067027;28;20906;-71
2021/01/03 12:45:35;;;;;;;;;;;4.30;99.90;;;;;;5067736;28;19913;-72
2021/01/03 12:48:00;;;;;;;;;;;4.40;99.90;;;;;;5066506;28;19943;-71
2021/01/03 12:50:26;;;;;;;;;;;4.50;99.90;;;;;;5066879;28;19952;-72
2021/01/03 12:52:51;;;;;;;;;;;4.70;99.90;;;;;;5066542;28;21562;-72
2021/01/03 12:55:17;;;;;;;;;;;4.80;99.90;;;;;;5067634;28;20035;-72
2021/01/03 12:57:42;;;;;;;;;;;4.90;99.90;;;;;;5067449;28;20352;-73
2021/01/03 13:00:08;;;;;;;;;;;4.90;99.90;;;;;;5067148;28;19921;-71
2021/01/03 13:02:33;;;;;;;;;;;4.90;99.90;;;;;;5067177;28;19923;-71
2021/01/03 13:04:59;;;;;;;;;;;4.90;99.90;;;;;;5065898;28;19942;-70
2021/01/03 13:07:24;;;;;;;;;;;4.80;99.90;;;;;;5068333;28;20061;-71
2021/01/03 13:09:50;;;;;;;;;;;4.70;99.90;;;;;;5067998;28;19912;-71
2021/01/03 13:12:16;;;;;;;;;;;4.60;99.90;;;;;;5067397;28;19913;-72
2021/01/03 13:14:41;;;;;;;;;;;4.60;99.90;;;;;;5067098;28;19920;-71
2021/01/03 13:17:07;;;;;;;;;;;4.60;99.90;;;;;;5067653;28;19919;-73
2021/01/03 13:19:33;;;;;;;;;;;4.30;99.90;;;;;;5067118;28;19912;-73
2021/01/03 13:21:58;;;;;;;;;;;4.20;99.90;;;;;;5064846;28;20396;-73
2021/01/03 13:24:24;;;;;;;;;;;4.20;99.90;;;;;;5067007;28;19921;-73
2021/01/03 13:26:51;;;;;;;;;;;4.10;99.90;;;;;;5067041;28;19923;-72
2021/01/03 13:29:17;;;;;;;;;;;3.90;99.90;;;;;;5067268;28;20007;-72
2021/01/03 13:31:42;;;;;;;;;;;3.80;99.90;;;;;;5065964;28;20285;-72
2021/01/03 13:34:08;;;;;;;;;;;3.80;99.90;;;;;;5064588;28;19939;-72
2021/01/03 13:36:40;;;;;;;;;;;3.70;99.90;;;;;;5066047;28;20087;-71
2021/01/03 13:39:05;;;;;;;;;;;3.70;99.90;;;;;;5074218;28;19921;-70
2021/01/03 13:41:31;;;;;;;;;;;3.60;99.90;;;;;;5066945;28;19916;-71
2021/01/03 13:43:56;;;;;;;;;;;3.60;99.90;;;;;;5101478;22;19967;-70
2021/01/03 13:46:22;;;;;;;;;;;3.60;99.90;;;;;;5086762;28;19923;-70
2021/01/03 13:48:48;;;;;;;;;;;3.40;99.90;;;;;;5086288;28;19912;-69
2021/01/03 13:51:14;;;;;;;;;;;3.40;99.90;;;;;;5086422;28;19916;-70
2021/01/03 13:53:39;;;;;;;;;;;3.40;99.90;;;;;;5074408;28;19956;-68
2021/01/03 13:56:05;;;;;;;;;;;3.40;99.90;;;;;;5066437;28;19916;-70
2021/01/03 13:58:32;;;;;;;;;;;3.40;99.90;;;;;;5066391;28;20035;-66
2021/01/03 14:00:57;;;;;;;;;;;3.50;99.90;;;;;;5064488;28;19995;-67
2021/01/03 14:03:23;;;;;;;;;;;3.50;99.90;;;;;;5060157;28;19933;-69
2021/01/03 14:05:49;;;;;;;;;;;3.40;99.90;;;;;;5047117;28;19929;-69
2021/01/03 14:08:15;;;;;;;;;;;3.40;99.90;;;;;;5066474;28;20033;-68
2021/01/03 14:10:41;;;;;;;;;;;3.40;99.90;;;;;;5065239;28;20397;-69
2021/01/03 14:13:07;;;;;;;;;;;3.50;99.90;;;;;;5065422;28;19920;-68
2021/01/03 14:15:33;;;;;;;;;;;3.40;99.90;;;;;;5064903;28;19986;-68
2021/01/03 14:17:58;;;;;;;;;;;3.40;99.90;;;;;;5063911;28;19958;-71
2021/01/03 14:20:24;;;;;;;;;;;3.40;99.90;;;;;;5066234;28;19951;-69
2021/01/03 14:22:50;;;;;;;;;;;3.40;99.90;;;;;;5065386;28;19924;-69
2021/01/03 14:25:16;;;;;;;;;;;3.50;99.90;;;;;;5066501;28;19948;-70
2021/01/03 14:27:42;;;;;;;;;;;3.50;99.90;;;;;;5065316;28;19916;-70
2021/01/03 14:30:07;;;;;;;;;;;3.50;99.90;;;;;;5046066;28;20427;-70
2021/01/03 14:32:33;;;;;;;;;;;3.50;99.90;;;;;;5062748;28;20296;-68
2021/01/03 14:34:59;;;;;;;;;;;3.50;99.90;;;;;;5065559;28;20290;-69
2021/01/03 14:37:39;;;;;;;;;;;3.50;99.90;;;;;;5065917;28;19913;-69
2021/01/03 14:40:08;;;;;;;;;;;3.50;99.90;;;;;;5066532;28;20588;-69